sensor_id;sensor_type;location;lat;lon;timestamp;P1;durP1;ratioP1;P2;durP2;ratioP2
13469;SDS011;6807;48.682;9.032;2023-04-05T00:01:35;5.10;;;4.35;;
13469;SDS011;6807;48.682;9.032;2023-04-05T00:04:03;6.43;;;4.47;;
13469;SDS011;6807;48.682;9.032;2023-04-05T00:06:32;8.50;;;4.50;;
13469;SDS011;6807;48.682;9.032;2023-04-05T00:08:59;4.82;;;4.00;;
13469;SDS011;6807;48.682;9.032;2023-04-05T00:11:29;7.10;;;4.03;;
13469;SDS011;6807;48.682;9.032;2023-04-05T00:13:59;6.57;;;4.55;;
13469;SDS011;6807;48.682;9.032;2023-04-05T00:16:27;7.78;;;5.15;;
13469;SDS011;6807;48.682;9.032;2023-04-05T00:18:55;6.65;;;4.82;;
13469;SDS011;6807;48.682;9.032;2023-04-05T00:21:23;5.68;;;5.03;;
13469;SDS011;6807;48.682;9.032;2023-04-05T00:23:51;7.32;;;5.43;;
13469;SDS011;6807;48.682;9.032;2023-04-05T00:26:19;5.85;;;4.70;;
13469;SDS011;6807;48.682;9.032;2023-04-05T00:28:46;8.05;;;5.13;;
13469;SDS011;6807;48.682;9.032;2023-04-05T00:31:15;7.40;;;4.70;;
13469;SDS011;6807;48.682;9.032;2023-04-05T00:33:42;7.72;;;5.50;;
13469;SDS011;6807;48.682;9.032;2023-04-05T00:36:10;6.15;;;4.95;;
13469;SDS011;6807;48.682;9.032;2023-04-05T00:38:37;7.47;;;4.97;;
13469;SDS011;6807;48.682;9.032;2023-04-05T00:41:04;6.47;;;4.78;;
13469;SDS011;6807;48.682;9.032;2023-04-05T00:43:31;6.53;;;5.43;;
13469;SDS011;6807;48.682;9.032;2023-04-05T00:45:59;6.32;;;4.85;;
13469;SDS011;6807;48.682;9.032;2023-04-05T00:48:28;5.40;;;4.82;;
13469;SDS011;6807;48.682;9.032;2023-04-05T00:50:55;8.05;;;4.70;;
13469;SDS011;6807;48.682;9.032;2023-04-05T00:53:23;6.50;;;4.88;;
13469;SDS011;6807;48.682;9.032;2023-04-05T00:55:51;8.02;;;5.10;;
13469;SDS011;6807;48.682;9.032;2023-04-05T00:58:19;5.90;;;4.55;;
13469;SDS011;6807;48.682;9.032;2023-04-05T01:00:49;5.93;;;4.90;;
13469;SDS011;6807;48.682;9.032;2023-04-05T01:03:23;7.80;;;5.03;;
13469;SDS011;6807;48.682;9.032;2023-04-05T01:05:55;5.03;;;4.50;;
13469;SDS011;6807;48.682;9.032;2023-04-05T01:08:28;8.85;;;5.82;;
13469;SDS011;6807;48.682;9.032;2023-04-05T01:11:03;7.53;;;4.65;;
13469;SDS011;6807;48.682;9.032;2023-04-05T01:13:32;7.43;;;5.05;;
13469;SDS011;6807;48.682;9.032;2023-04-05T01:15:59;6.38;;;5.32;;
13469;SDS011;6807;48.682;9.032;2023-04-05T01:18:26;5.18;;;4.63;;
13469;SDS011;6807;48.682;9.032;2023-04-05T01:20:58;6.85;;;5.07;;
13469;SDS011;6807;48.682;9.032;2023-04-05T01:23:43;6.07;;;5.50;;
13469;SDS011;6807;48.682;9.032;2023-04-05T01:29:36;7.05;;;4.97;;
13469;SDS011;6807;48.682;9.032;2023-04-05T01:32:10;7.97;;;5.40;;
13469;SDS011;6807;48.682;9.032;2023-04-05T01:34:45;5.97;;;5.30;;
13469;SDS011;6807;48.682;9.032;2023-04-05T01:37:17;7.80;;;5.47;;
13469;SDS011;6807;48.682;9.032;2023-04-05T01:39:45;7.32;;;5.13;;
13469;SDS011;6807;48.682;9.032;2023-04-05T01:42:15;7.30;;;5.50;;
13469;SDS011;6807;48.682;9.032;2023-04-05T01:44:48;7.00;;;5.28;;
13469;SDS011;6807;48.682;9.032;2023-04-05T01:47:15;8.70;;;5.25;;
13469;SDS011;6807;48.682;9.032;2023-04-05T01:49:42;5.90;;;4.60;;
13469;SDS011;6807;48.682;9.032;2023-04-05T01:52:09;9.57;;;5.25;;
13469;SDS011;6807;48.682;9.032;2023-04-05T01:54:36;7.03;;;5.10;;
13469;SDS011;6807;48.682;9.032;2023-04-05T01:57:03;5.45;;;4.95;;
13469;SDS011;6807;48.682;9.032;2023-04-05T01:59:31;9.90;;;5.88;;
13469;SDS011;6807;48.682;9.032;2023-04-05T02:01:59;7.22;;;5.57;;
13469;SDS011;6807;48.682;9.032;2023-04-05T02:04:26;6.18;;;4.72;;
13469;SDS011;6807;48.682;9.032;2023-04-05T02:06:53;8.43;;;5.65;;
13469;SDS011;6807;48.682;9.032;2023-04-05T02:09:20;6.47;;;5.35;;
13469;SDS011;6807;48.682;9.032;2023-04-05T02:11:47;7.18;;;5.15;;
13469;SDS011;6807;48.682;9.032;2023-04-05T02:14:14;7.63;;;5.60;;
13469;SDS011;6807;48.682;9.032;2023-04-05T02:16:41;7.45;;;5.20;;
13469;SDS011;6807;48.682;9.032;2023-04-05T02:19:10;6.65;;;5.50;;
13469;SDS011;6807;48.682;9.032;2023-04-05T02:21:37;5.80;;;5.00;;
13469;SDS011;6807;48.682;9.032;2023-04-05T02:24:05;6.32;;;5.45;;
13469;SDS011;6807;48.682;9.032;2023-04-05T02:26:32;7.38;;;5.53;;
13469;SDS011;6807;48.682;9.032;2023-04-05T02:28:59;7.00;;;5.75;;
13469;SDS011;6807;48.682;9.032;2023-04-05T02:31:26;5.40;;;4.88;;
13469;SDS011;6807;48.682;9.032;2023-04-05T02:33:53;7.63;;;5.80;;
13469;SDS011;6807;48.682;9.032;2023-04-05T02:36:21;7.35;;;5.38;;
13469;SDS011;6807;48.682;9.032;2023-04-05T02:38:48;8.70;;;5.25;;
13469;SDS011;6807;48.682;9.032;2023-04-05T02:41:15;6.55;;;4.88;;
13469;SDS011;6807;48.682;9.032;2023-04-05T02:43:42;6.97;;;5.45;;
13469;SDS011;6807;48.682;9.032;2023-04-05T02:46:09;7.50;;;5.10;;
13469;SDS011;6807;48.682;9.032;2023-04-05T02:48:36;7.03;;;6.00;;
13469;SDS011;6807;48.682;9.032;2023-04-05T02:51:03;7.15;;;5.38;;
13469;SDS011;6807;48.682;9.032;2023-04-05T02:53:31;7.70;;;5.85;;
13469;SDS011;6807;48.682;9.032;2023-04-05T02:55:58;9.20;;;6.32;;
13469;SDS011;6807;48.682;9.032;2023-04-05T02:58:25;10.38;;;6.28;;
13469;SDS011;6807;48.682;9.032;2023-04-05T03:00:52;7.55;;;5.82;;
13469;SDS011;6807;48.682;9.032;2023-04-05T03:03:20;7.93;;;6.00;;
13469;SDS011;6807;48.682;9.032;2023-04-05T03:05:48;9.35;;;6.90;;
13469;SDS011;6807;48.682;9.032;2023-04-05T03:08:24;9.40;;;5.45;;
13469;SDS011;6807;48.682;9.032;2023-04-05T03:10:54;9.95;;;6.07;;
13469;SDS011;6807;48.682;9.032;2023-04-05T03:13:21;7.38;;;5.55;;
13469;SDS011;6807;48.682;9.032;2023-04-05T03:15:47;7.63;;;6.35;;
13469;SDS011;6807;48.682;9.032;2023-04-05T03:18:18;9.18;;;6.05;;
13469;SDS011;6807;48.682;9.032;2023-04-05T03:20:46;6.18;;;5.57;;
13469;SDS011;6807;48.682;9.032;2023-04-05T03:23:13;6.22;;;5.63;;
13469;SDS011;6807;48.682;9.032;2023-04-05T03:25:40;8.48;;;5.53;;
13469;SDS011;6807;48.682;9.032;2023-04-05T03:28:09;7.35;;;6.28;;
13469;SDS011;6807;48.682;9.032;2023-04-05T03:30:36;8.80;;;5.95;;
13469;SDS011;6807;48.682;9.032;2023-04-05T03:33:03;7.90;;;6.47;;
13469;SDS011;6807;48.682;9.032;2023-04-05T03:35:30;6.80;;;6.07;;
13469;SDS011;6807;48.682;9.032;2023-04-05T03:37:57;6.80;;;6.10;;
13469;SDS011;6807;48.682;9.032;2023-04-05T03:40:24;8.93;;;6.97;;
13469;SDS011;6807;48.682;9.032;2023-04-05T03:42:51;7.93;;;5.68;;
13469;SDS011;6807;48.682;9.032;2023-04-05T03:45:19;7.18;;;6.47;;
13469;SDS011;6807;48.682;9.032;2023-04-05T03:47:46;11.07;;;6.70;;
13469;SDS011;6807;48.682;9.032;2023-04-05T03:50:13;9.48;;;6.72;;
13469;SDS011;6807;48.682;9.032;2023-04-05T03:52:40;8.38;;;6.47;;
13469;SDS011;6807;48.682;9.032;2023-04-05T03:55:07;7.40;;;6.15;;
13469;SDS011;6807;48.682;9.032;2023-04-05T03:57:35;7.75;;;6.22;;
13469;SDS011;6807;48.682;9.032;2023-04-05T04:00:03;7.55;;;5.63;;
13469;SDS011;6807;48.682;9.032;2023-04-05T04:02:40;10.65;;;6.45;;
13469;SDS011;6807;48.682;9.032;2023-04-05T04:05:08;9.60;;;6.65;;
13469;SDS011;6807;48.682;9.032;2023-04-05T04:07:36;8.18;;;6.68;;
13469;SDS011;6807;48.682;9.032;2023-04-05T04:10:03;9.40;;;7.35;;
13469;SDS011;6807;48.682;9.032;2023-04-05T04:12:31;7.63;;;6.38;;
13469;SDS011;6807;48.682;9.032;2023-04-05T04:14:58;7.45;;;6.10;;
13469;SDS011;6807;48.682;9.032;2023-04-05T04:17:26;8.55;;;6.55;;
13469;SDS011;6807;48.682;9.032;2023-04-05T04:19:55;9.63;;;6.88;;
13469;SDS011;6807;48.682;9.032;2023-04-05T04:22:22;10.15;;;6.63;;
13469;SDS011;6807;48.682;9.032;2023-04-05T04:24:57;10.85;;;6.63;;
13469;SDS011;6807;48.682;9.032;2023-04-05T04:27:26;8.25;;;6.25;;
13469;SDS011;6807;48.682;9.032;2023-04-05T04:29:54;8.68;;;6.38;;
13469;SDS011;6807;48.682;9.032;2023-04-05T04:32:25;7.38;;;6.35;;
13469;SDS011;6807;48.682;9.032;2023-04-05T04:35:13;8.35;;;5.75;;
13469;SDS011;6807;48.682;9.032;2023-04-05T04:37:43;8.05;;;6.07;;
13469;SDS011;6807;48.682;9.032;2023-04-05T04:40:11;7.80;;;6.38;;
13469;SDS011;6807;48.682;9.032;2023-04-05T04:42:41;8.93;;;6.18;;
13469;SDS011;6807;48.682;9.032;2023-04-05T04:45:11;8.82;;;6.40;;
13469;SDS011;6807;48.682;9.032;2023-04-05T04:47:40;10.07;;;6.70;;
13469;SDS011;6807;48.682;9.032;2023-04-05T04:50:07;8.95;;;6.63;;
13469;SDS011;6807;48.682;9.032;2023-04-05T04:52:37;9.52;;;7.25;;
13469;SDS011;6807;48.682;9.032;2023-04-05T04:55:04;10.95;;;6.90;;
13469;SDS011;6807;48.682;9.032;2023-04-05T04:57:33;9.60;;;7.45;;
13469;SDS011;6807;48.682;9.032;2023-04-05T05:00:00;8.57;;;7.10;;
13469;SDS011;6807;48.682;9.032;2023-04-05T05:02:32;11.55;;;7.43;;
13469;SDS011;6807;48.682;9.032;2023-04-05T05:04:58;10.85;;;9.00;;
13469;SDS011;6807;48.682;9.032;2023-04-05T05:07:25;11.55;;;7.57;;
13469;SDS011;6807;48.682;9.032;2023-04-05T05:09:54;10.05;;;6.97;;
13469;SDS011;6807;48.682;9.032;2023-04-05T05:12:21;9.93;;;6.97;;
13469;SDS011;6807;48.682;9.032;2023-04-05T05:14:48;9.18;;;7.10;;
13469;SDS011;6807;48.682;9.032;2023-04-05T05:17:15;8.80;;;6.68;;
13469;SDS011;6807;48.682;9.032;2023-04-05T05:19:41;14.32;;;8.00;;
13469;SDS011;6807;48.682;9.032;2023-04-05T05:22:08;13.55;;;7.85;;
13469;SDS011;6807;48.682;9.032;2023-04-05T05:24:35;11.48;;;7.40;;
13469;SDS011;6807;48.682;9.032;2023-04-05T05:27:04;13.05;;;7.20;;
13469;SDS011;6807;48.682;9.032;2023-04-05T05:29:31;9.18;;;7.03;;
13469;SDS011;6807;48.682;9.032;2023-04-05T05:31:58;10.63;;;7.20;;
13469;SDS011;6807;48.682;9.032;2023-04-05T05:34:25;20.75;;;8.95;;
13469;SDS011;6807;48.682;9.032;2023-04-05T05:36:52;10.15;;;7.35;;
13469;SDS011;6807;48.682;9.032;2023-04-05T05:39:20;12.02;;;8.82;;
13469;SDS011;6807;48.682;9.032;2023-04-05T05:41:47;19.42;;;8.85;;
13469;SDS011;6807;48.682;9.032;2023-04-05T05:44:16;9.55;;;7.20;;
13469;SDS011;6807;48.682;9.032;2023-04-05T05:46:44;11.43;;;7.55;;
13469;SDS011;6807;48.682;9.032;2023-04-05T05:49:11;8.40;;;6.93;;
13469;SDS011;6807;48.682;9.032;2023-04-05T05:51:38;12.82;;;8.60;;
13469;SDS011;6807;48.682;9.032;2023-04-05T05:54:05;10.02;;;7.25;;
13469;SDS011;6807;48.682;9.032;2023-04-05T05:56:32;9.85;;;7.80;;
13469;SDS011;6807;48.682;9.032;2023-04-05T05:59:00;11.55;;;7.93;;
13469;SDS011;6807;48.682;9.032;2023-04-05T06:01:29;12.68;;;7.60;;
13469;SDS011;6807;48.682;9.032;2023-04-05T06:03:58;10.57;;;7.60;;
13469;SDS011;6807;48.682;9.032;2023-04-05T06:06:25;9.55;;;7.00;;
13469;SDS011;6807;48.682;9.032;2023-04-05T06:08:54;9.82;;;7.32;;
13469;SDS011;6807;48.682;9.032;2023-04-05T06:11:21;9.15;;;6.47;;
13469;SDS011;6807;48.682;9.032;2023-04-05T06:13:49;9.98;;;6.95;;
13469;SDS011;6807;48.682;9.032;2023-04-05T06:16:19;8.35;;;5.95;;
13469;SDS011;6807;48.682;9.032;2023-04-05T06:18:47;9.52;;;6.97;;
13469;SDS011;6807;48.682;9.032;2023-04-05T06:21:15;8.68;;;6.47;;
13469;SDS011;6807;48.682;9.032;2023-04-05T06:23:42;7.80;;;6.20;;
13469;SDS011;6807;48.682;9.032;2023-04-05T06:26:14;11.82;;;6.60;;
13469;SDS011;6807;48.682;9.032;2023-04-05T06:28:42;9.40;;;6.53;;
13469;SDS011;6807;48.682;9.032;2023-04-05T06:31:12;14.32;;;6.03;;
13469;SDS011;6807;48.682;9.032;2023-04-05T06:33:39;11.10;;;6.78;;
13469;SDS011;6807;48.682;9.032;2023-04-05T06:36:08;6.93;;;5.90;;
13469;SDS011;6807;48.682;9.032;2023-04-05T06:38:35;10.38;;;6.57;;
13469;SDS011;6807;48.682;9.032;2023-04-05T06:41:02;6.95;;;6.25;;
13469;SDS011;6807;48.682;9.032;2023-04-05T06:43:29;7.97;;;6.68;;
13469;SDS011;6807;48.682;9.032;2023-04-05T06:45:57;7.18;;;6.22;;
13469;SDS011;6807;48.682;9.032;2023-04-05T06:48:24;9.07;;;5.95;;
13469;SDS011;6807;48.682;9.032;2023-04-05T06:50:55;10.05;;;5.68;;
13469;SDS011;6807;48.682;9.032;2023-04-05T06:53:24;8.50;;;5.95;;
13469;SDS011;6807;48.682;9.032;2023-04-05T06:55:52;7.28;;;5.65;;
13469;SDS011;6807;48.682;9.032;2023-04-05T06:58:20;8.07;;;6.53;;
13469;SDS011;6807;48.682;9.032;2023-04-05T07:00:47;7.43;;;5.88;;
13469;SDS011;6807;48.682;9.032;2023-04-05T07:03:14;8.13;;;5.57;;
13469;SDS011;6807;48.682;9.032;2023-04-05T07:05:48;5.57;;;4.65;;
13469;SDS011;6807;48.682;9.032;2023-04-05T07:08:16;6.75;;;4.53;;
13469;SDS011;6807;48.682;9.032;2023-04-05T07:10:45;6.28;;;4.45;;
13469;SDS011;6807;48.682;9.032;2023-04-05T07:13:12;4.45;;;4.05;;
13469;SDS011;6807;48.682;9.032;2023-04-05T07:15:39;6.03;;;4.80;;
13469;SDS011;6807;48.682;9.032;2023-04-05T07:18:06;5.25;;;4.30;;
13469;SDS011;6807;48.682;9.032;2023-04-05T07:20:33;6.80;;;4.07;;
13469;SDS011;6807;48.682;9.032;2023-04-05T07:23:00;5.85;;;4.18;;
13469;SDS011;6807;48.682;9.032;2023-04-05T07:25:28;6.07;;;4.50;;
13469;SDS011;6807;48.682;9.032;2023-04-05T07:27:56;8.98;;;4.75;;
13469;SDS011;6807;48.682;9.032;2023-04-05T07:30:24;5.32;;;4.18;;
13469;SDS011;6807;48.682;9.032;2023-04-05T07:32:51;5.60;;;4.63;;
13469;SDS011;6807;48.682;9.032;2023-04-05T07:35:19;5.82;;;4.20;;
13469;SDS011;6807;48.682;9.032;2023-04-05T07:37:46;4.68;;;4.10;;
13469;SDS011;6807;48.682;9.032;2023-04-05T07:40:13;6.85;;;4.97;;
13469;SDS011;6807;48.682;9.032;2023-04-05T07:42:40;5.05;;;4.55;;
13469;SDS011;6807;48.682;9.032;2023-04-05T07:45:08;6.72;;;4.43;;
13469;SDS011;6807;48.682;9.032;2023-04-05T07:47:36;5.18;;;4.47;;
13469;SDS011;6807;48.682;9.032;2023-04-05T07:50:03;5.60;;;4.95;;
13469;SDS011;6807;48.682;9.032;2023-04-05T07:52:33;5.97;;;4.40;;
13469;SDS011;6807;48.682;9.032;2023-04-05T07:55:00;4.97;;;4.55;;
13469;SDS011;6807;48.682;9.032;2023-04-05T07:57:27;6.45;;;4.75;;
13469;SDS011;6807;48.682;9.032;2023-04-05T07:59:54;5.45;;;4.65;;
13469;SDS011;6807;48.682;9.032;2023-04-05T08:02:23;5.18;;;4.25;;
13469;SDS011;6807;48.682;9.032;2023-04-05T08:04:50;9.07;;;4.45;;
13469;SDS011;6807;48.682;9.032;2023-04-05T08:07:17;6.00;;;5.03;;
13469;SDS011;6807;48.682;9.032;2023-04-05T08:09:43;6.75;;;4.80;;
13469;SDS011;6807;48.682;9.032;2023-04-05T08:12:11;5.65;;;4.50;;
13469;SDS011;6807;48.682;9.032;2023-04-05T08:14:37;5.15;;;4.32;;
13469;SDS011;6807;48.682;9.032;2023-04-05T08:17:04;6.05;;;4.38;;
13469;SDS011;6807;48.682;9.032;2023-04-05T08:19:33;5.13;;;4.40;;
13469;SDS011;6807;48.682;9.032;2023-04-05T08:22:00;5.80;;;4.07;;
13469;SDS011;6807;48.682;9.032;2023-04-05T08:24:26;6.72;;;4.30;;
13469;SDS011;6807;48.682;9.032;2023-04-05T08:26:53;5.65;;;4.93;;
13469;SDS011;6807;48.682;9.032;2023-04-05T08:29:20;5.95;;;4.43;;
13469;SDS011;6807;48.682;9.032;2023-04-05T08:31:47;6.18;;;4.88;;
13469;SDS011;6807;48.682;9.032;2023-04-05T08:34:14;5.40;;;4.05;;
13469;SDS011;6807;48.682;9.032;2023-04-05T08:36:43;6.32;;;4.07;;
13469;SDS011;6807;48.682;9.032;2023-04-05T08:39:10;4.32;;;3.70;;
13469;SDS011;6807;48.682;9.032;2023-04-05T08:41:39;7.20;;;4.00;;
13469;SDS011;6807;48.682;9.032;2023-04-05T08:44:10;4.15;;;3.75;;
13469;SDS011;6807;48.682;9.032;2023-04-05T08:46:37;4.30;;;3.75;;
13469;SDS011;6807;48.682;9.032;2023-04-05T08:49:05;5.05;;;3.92;;
13469;SDS011;6807;48.682;9.032;2023-04-05T08:51:34;5.20;;;3.53;;
13469;SDS011;6807;48.682;9.032;2023-04-05T08:54:04;4.82;;;3.40;;
13469;SDS011;6807;48.682;9.032;2023-04-05T08:56:32;4.05;;;3.40;;
13469;SDS011;6807;48.682;9.032;2023-04-05T08:59:00;3.85;;;3.22;;
13469;SDS011;6807;48.682;9.032;2023-04-05T09:01:29;3.90;;;3.60;;
13469;SDS011;6807;48.682;9.032;2023-04-05T09:03:58;4.72;;;3.60;;
13469;SDS011;6807;48.682;9.032;2023-04-05T09:06:27;5.30;;;3.95;;
13469;SDS011;6807;48.682;9.032;2023-04-05T09:08:55;4.00;;;3.17;;
13469;SDS011;6807;48.682;9.032;2023-04-05T09:11:24;6.50;;;4.20;;
13469;SDS011;6807;48.682;9.032;2023-04-05T09:13:51;4.93;;;3.47;;
13469;SDS011;6807;48.682;9.032;2023-04-05T09:16:18;4.32;;;3.72;;
13469;SDS011;6807;48.682;9.032;2023-04-05T09:18:45;4.07;;;3.40;;
13469;SDS011;6807;48.682;9.032;2023-04-05T09:21:13;6.55;;;3.70;;
13469;SDS011;6807;48.682;9.032;2023-04-05T09:23:49;5.65;;;3.60;;
13469;SDS011;6807;48.682;9.032;2023-04-05T09:26:18;3.83;;;3.00;;
13469;SDS011;6807;48.682;9.032;2023-04-05T09:28:48;5.78;;;3.60;;
13469;SDS011;6807;48.682;9.032;2023-04-05T09:31:31;4.10;;;3.50;;
13469;SDS011;6807;48.682;9.032;2023-04-05T09:34:01;5.25;;;3.60;;
13469;SDS011;6807;48.682;9.032;2023-04-05T09:36:29;5.05;;;3.78;;
13469;SDS011;6807;48.682;9.032;2023-04-05T09:39:05;4.25;;;3.85;;
13469;SDS011;6807;48.682;9.032;2023-04-05T09:41:33;6.15;;;3.70;;
13469;SDS011;6807;48.682;9.032;2023-04-05T09:44:02;4.30;;;3.67;;
13469;SDS011;6807;48.682;9.032;2023-04-05T09:46:30;6.18;;;3.60;;
13469;SDS011;6807;48.682;9.032;2023-04-05T09:48:58;8.68;;;4.30;;
13469;SDS011;6807;48.682;9.032;2023-04-05T09:51:31;6.88;;;3.90;;
13469;SDS011;6807;48.682;9.032;2023-04-05T09:54:00;6.38;;;3.85;;
13469;SDS011;6807;48.682;9.032;2023-04-05T09:56:30;4.40;;;4.00;;
13469;SDS011;6807;48.682;9.032;2023-04-05T09:58:58;3.78;;;3.33;;
13469;SDS011;6807;48.682;9.032;2023-04-05T10:01:28;5.10;;;4.25;;
13469;SDS011;6807;48.682;9.032;2023-04-05T10:03:56;6.05;;;3.92;;
13469;SDS011;6807;48.682;9.032;2023-04-05T10:06:32;6.60;;;3.50;;
13469;SDS011;6807;48.682;9.032;2023-04-05T10:09:01;4.00;;;3.53;;
13469;SDS011;6807;48.682;9.032;2023-04-05T10:11:29;4.40;;;4.00;;
13469;SDS011;6807;48.682;9.032;2023-04-05T10:13:56;5.28;;;3.70;;
13469;SDS011;6807;48.682;9.032;2023-04-05T10:16:29;4.85;;;3.65;;
13469;SDS011;6807;48.682;9.032;2023-04-05T10:18:59;5.18;;;3.78;;
13469;SDS011;6807;48.682;9.032;2023-04-05T10:21:30;5.03;;;4.10;;
13469;SDS011;6807;48.682;9.032;2023-04-05T10:24:04;5.72;;;4.32;;
13469;SDS011;6807;48.682;9.032;2023-04-05T10:26:42;4.57;;;3.75;;
13469;SDS011;6807;48.682;9.032;2023-04-05T10:29:15;4.47;;;3.45;;
13469;SDS011;6807;48.682;9.032;2023-04-05T10:31:50;4.60;;;4.20;;
13469;SDS011;6807;48.682;9.032;2023-04-05T10:34:23;5.47;;;3.90;;
13469;SDS011;6807;48.682;9.032;2023-04-05T10:36:57;3.95;;;3.33;;
13469;SDS011;6807;48.682;9.032;2023-04-05T10:39:26;3.78;;;3.42;;
13469;SDS011;6807;48.682;9.032;2023-04-05T10:41:58;3.92;;;3.22;;
13469;SDS011;6807;48.682;9.032;2023-04-05T10:44:28;4.10;;;3.70;;
13469;SDS011;6807;48.682;9.032;2023-04-05T10:46:58;5.00;;;4.47;;
13469;SDS011;6807;48.682;9.032;2023-04-05T10:49:31;4.53;;;3.83;;
13469;SDS011;6807;48.682;9.032;2023-04-05T10:52:01;4.57;;;3.78;;
13469;SDS011;6807;48.682;9.032;2023-04-05T10:54:30;4.10;;;3.60;;
13469;SDS011;6807;48.682;9.032;2023-04-05T10:56:58;5.15;;;3.85;;
13469;SDS011;6807;48.682;9.032;2023-04-05T10:59:28;4.97;;;3.63;;
13469;SDS011;6807;48.682;9.032;2023-04-05T11:01:56;4.55;;;3.55;;
13469;SDS011;6807;48.682;9.032;2023-04-05T11:04:25;5.43;;;3.92;;
13469;SDS011;6807;48.682;9.032;2023-04-05T11:07:11;5.18;;;4.22;;
13469;SDS011;6807;48.682;9.032;2023-04-05T11:09:39;4.15;;;3.72;;
13469;SDS011;6807;48.682;9.032;2023-04-05T11:15:30;4.07;;;3.67;;
13469;SDS011;6807;48.682;9.032;2023-04-05T11:18:02;4.90;;;3.95;;
13469;SDS011;6807;48.682;9.032;2023-04-05T11:20:41;6.70;;;3.95;;
13469;SDS011;6807;48.682;9.032;2023-04-05T11:23:11;5.15;;;4.40;;
13469;SDS011;6807;48.682;9.032;2023-04-05T11:25:39;4.55;;;3.80;;
13469;SDS011;6807;48.682;9.032;2023-04-05T11:28:20;4.93;;;4.07;;
13469;SDS011;6807;48.682;9.032;2023-04-05T11:30:49;4.95;;;4.00;;
13469;SDS011;6807;48.682;9.032;2023-04-05T11:36:35;5.63;;;4.28;;
13469;SDS011;6807;48.682;9.032;2023-04-05T11:39:24;4.40;;;4.00;;
13469;SDS011;6807;48.682;9.032;2023-04-05T11:41:52;4.85;;;4.40;;
13469;SDS011;6807;48.682;9.032;2023-04-05T11:44:21;5.25;;;4.10;;
13469;SDS011;6807;48.682;9.032;2023-04-05T11:46:49;5.22;;;3.78;;
13469;SDS011;6807;48.682;9.032;2023-04-05T11:49:16;5.35;;;3.70;;
13469;SDS011;6807;48.682;9.032;2023-04-05T11:51:46;4.93;;;3.60;;
13469;SDS011;6807;48.682;9.032;2023-04-05T11:54:26;4.75;;;4.20;;
13469;SDS011;6807;48.682;9.032;2023-04-05T11:56:54;5.70;;;4.45;;
13469;SDS011;6807;48.682;9.032;2023-04-05T11:59:32;4.55;;;4.15;;
13469;SDS011;6807;48.682;9.032;2023-04-05T12:02:00;4.85;;;4.30;;
13469;SDS011;6807;48.682;9.032;2023-04-05T12:04:29;4.03;;;3.60;;
13469;SDS011;6807;48.682;9.032;2023-04-05T12:07:16;5.60;;;3.97;;
13469;SDS011;6807;48.682;9.032;2023-04-05T12:10:01;5.90;;;4.22;;
13469;SDS011;6807;48.682;9.032;2023-04-05T12:12:34;4.38;;;3.97;;
13469;SDS011;6807;48.682;9.032;2023-04-05T12:15:03;4.85;;;3.97;;
13469;SDS011;6807;48.682;9.032;2023-04-05T12:17:40;4.88;;;4.00;;
13469;SDS011;6807;48.682;9.032;2023-04-05T12:20:08;4.80;;;4.10;;
13469;SDS011;6807;48.682;9.032;2023-04-05T12:22:38;5.05;;;4.20;;
13469;SDS011;6807;48.682;9.032;2023-04-05T12:25:06;4.40;;;4.00;;
13469;SDS011;6807;48.682;9.032;2023-04-05T12:27:34;4.65;;;3.90;;
13469;SDS011;6807;48.682;9.032;2023-04-05T12:30:08;4.30;;;3.70;;
13469;SDS011;6807;48.682;9.032;2023-04-05T12:32:39;4.25;;;3.85;;
13469;SDS011;6807;48.682;9.032;2023-04-05T12:35:09;4.47;;;4.07;;
13469;SDS011;6807;48.682;9.032;2023-04-05T12:37:39;4.70;;;3.78;;
13469;SDS011;6807;48.682;9.032;2023-04-05T12:40:06;5.55;;;4.25;;
13469;SDS011;6807;48.682;9.032;2023-04-05T12:42:34;5.15;;;4.25;;
13469;SDS011;6807;48.682;9.032;2023-04-05T12:45:02;5.57;;;4.45;;
13469;SDS011;6807;48.682;9.032;2023-04-05T12:47:31;6.10;;;4.38;;
13469;SDS011;6807;48.682;9.032;2023-04-05T12:50:09;4.88;;;4.38;;
13469;SDS011;6807;48.682;9.032;2023-04-05T12:52:39;4.60;;;3.95;;
13469;SDS011;6807;48.682;9.032;2023-04-05T12:55:17;5.25;;;4.07;;
13469;SDS011;6807;48.682;9.032;2023-04-05T12:57:47;5.93;;;4.10;;
13469;SDS011;6807;48.682;9.032;2023-04-05T13:00:15;7.00;;;3.80;;
13469;SDS011;6807;48.682;9.032;2023-04-05T13:02:47;5.70;;;3.88;;
13469;SDS011;6807;48.682;9.032;2023-04-05T13:05:15;4.60;;;3.83;;
13469;SDS011;6807;48.682;9.032;2023-04-05T13:07:43;6.03;;;4.10;;
13469;SDS011;6807;48.682;9.032;2023-04-05T13:10:11;4.75;;;4.25;;
13469;SDS011;6807;48.682;9.032;2023-04-05T13:12:38;3.83;;;3.42;;
13469;SDS011;6807;48.682;9.032;2023-04-05T13:15:05;4.72;;;4.25;;
13469;SDS011;6807;48.682;9.032;2023-04-05T13:17:33;4.95;;;4.28;;
13469;SDS011;6807;48.682;9.032;2023-04-05T13:20:00;4.40;;;3.78;;
13469;SDS011;6807;48.682;9.032;2023-04-05T13:22:27;5.80;;;3.95;;
13469;SDS011;6807;48.682;9.032;2023-04-05T13:24:55;6.78;;;4.03;;
13469;SDS011;6807;48.682;9.032;2023-04-05T13:27:22;4.38;;;3.83;;
13469;SDS011;6807;48.682;9.032;2023-04-05T13:29:49;4.85;;;3.88;;
13469;SDS011;6807;48.682;9.032;2023-04-05T13:32:16;7.63;;;4.47;;
13469;SDS011;6807;48.682;9.032;2023-04-05T13:34:43;5.20;;;4.35;;
13469;SDS011;6807;48.682;9.032;2023-04-05T13:37:10;5.75;;;4.20;;
13469;SDS011;6807;48.682;9.032;2023-04-05T13:39:37;4.60;;;4.20;;
13469;SDS011;6807;48.682;9.032;2023-04-05T13:42:05;4.40;;;4.00;;
13469;SDS011;6807;48.682;9.032;2023-04-05T13:44:32;5.30;;;4.40;;
13469;SDS011;6807;48.682;9.032;2023-04-05T13:46:59;4.72;;;4.28;;
13469;SDS011;6807;48.682;9.032;2023-04-05T13:49:26;4.65;;;4.07;;
13469;SDS011;6807;48.682;9.032;2023-04-05T13:51:52;5.22;;;4.70;;
13469;SDS011;6807;48.682;9.032;2023-04-05T13:54:19;4.70;;;4.25;;
13469;SDS011;6807;48.682;9.032;2023-04-05T13:56:46;4.53;;;4.13;;
13469;SDS011;6807;48.682;9.032;2023-04-05T13:59:14;4.40;;;4.00;;
13469;SDS011;6807;48.682;9.032;2023-04-05T14:01:43;7.57;;;4.68;;
13469;SDS011;6807;48.682;9.032;2023-04-05T14:04:10;4.38;;;3.97;;
13469;SDS011;6807;48.682;9.032;2023-04-05T14:06:37;4.68;;;4.20;;
13469;SDS011;6807;48.682;9.032;2023-04-05T14:09:04;5.80;;;4.45;;
13469;SDS011;6807;48.682;9.032;2023-04-05T14:11:31;5.10;;;4.18;;
13469;SDS011;6807;48.682;9.032;2023-04-05T14:13:58;5.30;;;4.60;;
13469;SDS011;6807;48.682;9.032;2023-04-05T14:16:27;4.65;;;4.10;;
13469;SDS011;6807;48.682;9.032;2023-04-05T14:18:54;5.25;;;4.50;;
13469;SDS011;6807;48.682;9.032;2023-04-05T14:21:21;7.38;;;4.30;;
13469;SDS011;6807;48.682;9.032;2023-04-05T14:23:49;6.28;;;4.28;;
13469;SDS011;6807;48.682;9.032;2023-04-05T14:26:21;4.70;;;4.20;;
13469;SDS011;6807;48.682;9.032;2023-04-05T14:28:49;5.75;;;4.22;;
13469;SDS011;6807;48.682;9.032;2023-04-05T14:31:16;7.10;;;4.63;;
13469;SDS011;6807;48.682;9.032;2023-04-05T14:33:44;5.15;;;4.60;;
13469;SDS011;6807;48.682;9.032;2023-04-05T14:36:11;4.55;;;4.15;;
13469;SDS011;6807;48.682;9.032;2023-04-05T14:38:38;5.07;;;4.60;;
13469;SDS011;6807;48.682;9.032;2023-04-05T14:41:05;4.82;;;4.40;;
13469;SDS011;6807;48.682;9.032;2023-04-05T14:43:34;5.10;;;4.60;;
13469;SDS011;6807;48.682;9.032;2023-04-05T14:46:01;5.07;;;4.57;;
13469;SDS011;6807;48.682;9.032;2023-04-05T14:48:28;4.65;;;4.25;;
13469;SDS011;6807;48.682;9.032;2023-04-05T14:50:58;5.22;;;4.38;;
13469;SDS011;6807;48.682;9.032;2023-04-05T14:53:26;5.97;;;4.60;;
13469;SDS011;6807;48.682;9.032;2023-04-05T14:55:53;6.10;;;4.70;;
13469;SDS011;6807;48.682;9.032;2023-04-05T14:58:20;5.88;;;4.15;;
13469;SDS011;6807;48.682;9.032;2023-04-05T15:00:47;8.05;;;4.68;;
13469;SDS011;6807;48.682;9.032;2023-04-05T15:03:15;6.65;;;4.70;;
13469;SDS011;6807;48.682;9.032;2023-04-05T15:05:44;6.00;;;4.45;;
13469;SDS011;6807;48.682;9.032;2023-04-05T15:08:13;5.60;;;4.47;;
13469;SDS011;6807;48.682;9.032;2023-04-05T15:10:40;7.03;;;4.40;;
13469;SDS011;6807;48.682;9.032;2023-04-05T15:13:08;5.05;;;4.47;;
13469;SDS011;6807;48.682;9.032;2023-04-05T15:15:35;6.25;;;4.60;;
13469;SDS011;6807;48.682;9.032;2023-04-05T15:18:03;4.88;;;4.15;;
13469;SDS011;6807;48.682;9.032;2023-04-05T15:20:31;5.00;;;4.35;;